Terminal Aerodrome Forecast
Issued by NWS Amarillo, TX

Current Version | Previous Version | Text Only | Print | Product List | Glossary Off
Versions: 1 2 3 4 5 6 7 8 9 10 11 12 13 14 15

000
FTUS44 KAMA 030500
TAFDHT
TAF
KDHT 030520Z 0306/0406 36007KT P6SM VCTS SCT030CB BKN120 OVC300
     FM030900 02007KT P6SM SCT010 BKN120 OVC300
     FM031500 11009KT P6SM SCT035 BKN300
     FM032000 15011KT P6SM SCT045 BKN300=

USA.gov is the U.S. government's official web portal to all federal, state and local government web resources and services.